sensor_id;sensor_type;location;lat;lon;timestamp;temperature;humidity
52513;DHT22;38422;53.172;6.974;2023-08-06T00:00:25;15.90;99.90
52513;DHT22;38422;53.172;6.974;2023-08-06T00:02:51;15.90;99.90
52513;DHT22;38422;53.172;6.974;2023-08-06T00:05:17;15.90;99.90
52513;DHT22;38422;53.172;6.974;2023-08-06T00:07:49;15.80;99.90
52513;DHT22;38422;53.172;6.974;2023-08-06T00:10:15;15.80;99.90
52513;DHT22;38422;53.172;6.974;2023-08-06T00:12:41;15.80;99.90
52513;DHT22;38422;53.172;6.974;2023-08-06T00:15:07;15.80;99.90
52513;DHT22;38422;53.172;6.974;2023-08-06T00:17:34;15.80;99.90
52513;DHT22;38422;53.172;6.974;2023-08-06T00:20:00;15.80;99.90
52513;DHT22;38422;53.172;6.974;2023-08-06T00:22:35;15.80;99.90
52513;DHT22;38422;53.172;6.974;2023-08-06T00:25:02;15.70;99.90
52513;DHT22;38422;53.172;6.974;2023-08-06T00:27:28;15.70;99.90
52513;DHT22;38422;53.172;6.974;2023-08-06T00:29:54;15.60;99.90
52513;DHT22;38422;53.172;6.974;2023-08-06T00:32:20;15.60;99.90
52513;DHT22;38422;53.172;6.974;2023-08-06T00:34:46;15.60;99.90
52513;DHT22;38422;53.172;6.974;2023-08-06T00:37:12;15.60;99.90
52513;DHT22;38422;53.172;6.974;2023-08-06T00:39:38;15.60;99.90
52513;DHT22;38422;53.172;6.974;2023-08-06T00:42:03;15.60;99.90
52513;DHT22;38422;53.172;6.974;2023-08-06T00:44:29;15.60;99.90
52513;DHT22;38422;53.172;6.974;2023-08-06T00:46:55;15.60;99.90
52513;DHT22;38422;53.172;6.974;2023-08-06T00:49:21;15.60;99.90
52513;DHT22;38422;53.172;6.974;2023-08-06T00:51:47;15.60;99.90
52513;DHT22;38422;53.172;6.974;2023-08-06T00:54:13;15.70;99.90
52513;DHT22;38422;53.172;6.974;2023-08-06T00:56:40;15.60;99.90
52513;DHT22;38422;53.172;6.974;2023-08-06T00:59:06;15.60;99.90
52513;DHT22;38422;53.172;6.974;2023-08-06T01:01:33;15.60;99.90
52513;DHT22;38422;53.172;6.974;2023-08-06T01:03:58;15.50;99.90
52513;DHT22;38422;53.172;6.974;2023-08-06T01:06:39;15.50;99.90
52513;DHT22;38422;53.172;6.974;2023-08-06T01:15:22;15.40;99.90
52513;DHT22;38422;53.172;6.974;2023-08-06T01:17:49;15.40;99.90
52513;DHT22;38422;53.172;6.974;2023-08-06T01:20:15;15.40;99.90
52513;DHT22;38422;53.172;6.974;2023-08-06T01:22:41;15.40;99.90
52513;DHT22;38422;53.172;6.974;2023-08-06T01:25:07;15.40;99.90
52513;DHT22;38422;53.172;6.974;2023-08-06T01:27:49;15.40;99.90
52513;DHT22;38422;53.172;6.974;2023-08-06T01:30:23;15.50;99.90
52513;DHT22;38422;53.172;6.974;2023-08-06T01:32:54;15.50;99.90
52513;DHT22;38422;53.172;6.974;2023-08-06T01:35:23;15.50;99.90
52513;DHT22;38422;53.172;6.974;2023-08-06T01:37:51;15.50;99.90
52513;DHT22;38422;53.172;6.974;2023-08-06T01:40:16;15.50;99.90
52513;DHT22;38422;53.172;6.974;2023-08-06T01:42:42;15.50;99.90
52513;DHT22;38422;53.172;6.974;2023-08-06T01:45:08;15.50;99.90
52513;DHT22;38422;53.172;6.974;2023-08-06T01:47:35;15.50;99.90
52513;DHT22;38422;53.172;6.974;2023-08-06T01:50:01;15.50;99.90
52513;DHT22;38422;53.172;6.974;2023-08-06T01:52:27;15.50;99.90
52513;DHT22;38422;53.172;6.974;2023-08-06T01:54:53;15.50;99.90
52513;DHT22;38422;53.172;6.974;2023-08-06T01:57:18;15.50;99.90
52513;DHT22;38422;53.172;6.974;2023-08-06T01:59:44;15.50;99.90
52513;DHT22;38422;53.172;6.974;2023-08-06T02:02:10;15.50;99.90
52513;DHT22;38422;53.172;6.974;2023-08-06T02:04:35;15.50;99.90
52513;DHT22;38422;53.172;6.974;2023-08-06T02:07:01;15.50;99.90
52513;DHT22;38422;53.172;6.974;2023-08-06T02:09:27;15.50;99.90
52513;DHT22;38422;53.172;6.974;2023-08-06T02:11:52;15.50;99.90
52513;DHT22;38422;53.172;6.974;2023-08-06T02:14:18;15.50;99.90
52513;DHT22;38422;53.172;6.974;2023-08-06T02:16:44;15.50;99.90
52513;DHT22;38422;53.172;6.974;2023-08-06T02:19:09;15.50;99.90
52513;DHT22;38422;53.172;6.974;2023-08-06T02:21:35;15.50;99.90
52513;DHT22;38422;53.172;6.974;2023-08-06T02:24:01;15.50;99.90
52513;DHT22;38422;53.172;6.974;2023-08-06T02:26:30;15.50;99.90
52513;DHT22;38422;53.172;6.974;2023-08-06T02:28:56;15.50;99.90
52513;DHT22;38422;53.172;6.974;2023-08-06T02:31:21;15.50;99.90
52513;DHT22;38422;53.172;6.974;2023-08-06T02:33:47;15.50;99.90
52513;DHT22;38422;53.172;6.974;2023-08-06T02:36:13;15.50;99.90
52513;DHT22;38422;53.172;6.974;2023-08-06T02:38:39;15.50;99.90
52513;DHT22;38422;53.172;6.974;2023-08-06T02:41:05;15.50;99.90
52513;DHT22;38422;53.172;6.974;2023-08-06T02:43:31;15.50;99.90
52513;DHT22;38422;53.172;6.974;2023-08-06T02:45:57;15.60;99.90
52513;DHT22;38422;53.172;6.974;2023-08-06T02:48:23;15.60;99.90
52513;DHT22;38422;53.172;6.974;2023-08-06T02:50:49;15.60;99.90
52513;DHT22;38422;53.172;6.974;2023-08-06T02:53:15;15.60;99.90
52513;DHT22;38422;53.172;6.974;2023-08-06T02:55:46;15.60;99.90
52513;DHT22;38422;53.172;6.974;2023-08-06T02:58:13;15.60;99.90
52513;DHT22;38422;53.172;6.974;2023-08-06T03:00:39;15.60;99.90
52513;DHT22;38422;53.172;6.974;2023-08-06T03:03:05;15.60;99.90
52513;DHT22;38422;53.172;6.974;2023-08-06T03:05:30;15.60;99.90
52513;DHT22;38422;53.172;6.974;2023-08-06T03:07:56;15.60;99.90
52513;DHT22;38422;53.172;6.974;2023-08-06T03:10:22;15.60;99.90
52513;DHT22;38422;53.172;6.974;2023-08-06T03:12:47;15.60;99.90
52513;DHT22;38422;53.172;6.974;2023-08-06T03:15:13;15.50;99.90
52513;DHT22;38422;53.172;6.974;2023-08-06T03:17:39;15.60;99.90
52513;DHT22;38422;53.172;6.974;2023-08-06T03:20:06;15.60;99.90
52513;DHT22;38422;53.172;6.974;2023-08-06T03:22:32;15.60;99.90
52513;DHT22;38422;53.172;6.974;2023-08-06T03:24:57;15.60;99.90
52513;DHT22;38422;53.172;6.974;2023-08-06T03:27:23;15.60;99.90
52513;DHT22;38422;53.172;6.974;2023-08-06T03:29:49;15.60;99.90
52513;DHT22;38422;53.172;6.974;2023-08-06T03:32:18;15.60;99.90
52513;DHT22;38422;53.172;6.974;2023-08-06T03:34:43;15.60;99.90
52513;DHT22;38422;53.172;6.974;2023-08-06T03:37:09;15.60;99.90
52513;DHT22;38422;53.172;6.974;2023-08-06T03:39:35;15.60;99.90
52513;DHT22;38422;53.172;6.974;2023-08-06T03:42:00;15.60;99.90
52513;DHT22;38422;53.172;6.974;2023-08-06T03:44:26;15.60;99.90
52513;DHT22;38422;53.172;6.974;2023-08-06T03:46:53;15.60;99.90
52513;DHT22;38422;53.172;6.974;2023-08-06T03:49:19;15.60;99.90
52513;DHT22;38422;53.172;6.974;2023-08-06T03:51:45;15.60;99.90
52513;DHT22;38422;53.172;6.974;2023-08-06T03:54:11;15.60;99.90
52513;DHT22;38422;53.172;6.974;2023-08-06T03:56:37;15.60;99.90
52513;DHT22;38422;53.172;6.974;2023-08-06T03:59:02;15.60;99.90
52513;DHT22;38422;53.172;6.974;2023-08-06T04:01:28;15.60;99.90
52513;DHT22;38422;53.172;6.974;2023-08-06T04:03:54;15.60;99.90
52513;DHT22;38422;53.172;6.974;2023-08-06T04:06:19;15.50;99.90
52513;DHT22;38422;53.172;6.974;2023-08-06T04:08:45;15.50;99.90
52513;DHT22;38422;53.172;6.974;2023-08-06T04:11:11;15.50;99.90
52513;DHT22;38422;53.172;6.974;2023-08-06T04:13:38;15.50;99.90
52513;DHT22;38422;53.172;6.974;2023-08-06T04:16:03;15.50;99.90
52513;DHT22;38422;53.172;6.974;2023-08-06T04:18:29;15.50;99.90
52513;DHT22;38422;53.172;6.974;2023-08-06T04:20:55;15.50;99.90
52513;DHT22;38422;53.172;6.974;2023-08-06T04:23:23;15.50;99.90
52513;DHT22;38422;53.172;6.974;2023-08-06T04:25:48;15.50;99.90
52513;DHT22;38422;53.172;6.974;2023-08-06T04:28:14;15.50;99.90
52513;DHT22;38422;53.172;6.974;2023-08-06T04:30:40;15.50;99.90
52513;DHT22;38422;53.172;6.974;2023-08-06T04:33:05;15.50;99.90
52513;DHT22;38422;53.172;6.974;2023-08-06T04:35:31;15.50;99.90
52513;DHT22;38422;53.172;6.974;2023-08-06T04:37:57;15.50;99.90
52513;DHT22;38422;53.172;6.974;2023-08-06T04:40:22;15.50;99.90
52513;DHT22;38422;53.172;6.974;2023-08-06T04:42:48;15.50;99.90
52513;DHT22;38422;53.172;6.974;2023-08-06T04:45:14;15.50;99.90
52513;DHT22;38422;53.172;6.974;2023-08-06T04:47:39;15.50;99.90
52513;DHT22;38422;53.172;6.974;2023-08-06T04:50:05;15.50;99.90
52513;DHT22;38422;53.172;6.974;2023-08-06T04:52:31;15.60;99.90
52513;DHT22;38422;53.172;6.974;2023-08-06T04:54:58;15.60;99.90
52513;DHT22;38422;53.172;6.974;2023-08-06T04:57:23;15.60;99.90
52513;DHT22;38422;53.172;6.974;2023-08-06T04:59:49;15.60;99.90
52513;DHT22;38422;53.172;6.974;2023-08-06T05:02:16;15.60;99.90
52513;DHT22;38422;53.172;6.974;2023-08-06T05:04:41;15.70;99.90
52513;DHT22;38422;53.172;6.974;2023-08-06T05:07:10;15.70;99.90
52513;DHT22;38422;53.172;6.974;2023-08-06T05:09:36;15.70;99.90
52513;DHT22;38422;53.172;6.974;2023-08-06T05:12:03;15.80;99.90
52513;DHT22;38422;53.172;6.974;2023-08-06T05:14:29;15.80;99.90
52513;DHT22;38422;53.172;6.974;2023-08-06T05:16:55;15.80;99.90
52513;DHT22;38422;53.172;6.974;2023-08-06T05:19:20;15.90;99.90
52513;DHT22;38422;53.172;6.974;2023-08-06T05:21:46;15.90;99.90
52513;DHT22;38422;53.172;6.974;2023-08-06T05:24:12;15.90;99.90
52513;DHT22;38422;53.172;6.974;2023-08-06T05:26:37;15.90;99.90
52513;DHT22;38422;53.172;6.974;2023-08-06T05:29:03;15.90;99.90
52513;DHT22;38422;53.172;6.974;2023-08-06T05:31:29;15.90;99.90
52513;DHT22;38422;53.172;6.974;2023-08-06T05:33:55;15.90;99.90
52513;DHT22;38422;53.172;6.974;2023-08-06T05:36:20;15.90;99.90
52513;DHT22;38422;53.172;6.974;2023-08-06T05:38:47;15.90;99.90
52513;DHT22;38422;53.172;6.974;2023-08-06T05:41:12;16.00;99.90
52513;DHT22;38422;53.172;6.974;2023-08-06T05:43:38;16.00;99.90
52513;DHT22;38422;53.172;6.974;2023-08-06T05:46:04;16.10;99.90
52513;DHT22;38422;53.172;6.974;2023-08-06T05:48:30;16.10;99.90
52513;DHT22;38422;53.172;6.974;2023-08-06T05:50:57;16.10;99.90
52513;DHT22;38422;53.172;6.974;2023-08-06T05:53:24;16.20;99.90
52513;DHT22;38422;53.172;6.974;2023-08-06T05:55:50;16.20;99.90
52513;DHT22;38422;53.172;6.974;2023-08-06T05:58:16;16.20;99.90
52513;DHT22;38422;53.172;6.974;2023-08-06T06:00:42;16.20;99.90
52513;DHT22;38422;53.172;6.974;2023-08-06T06:03:07;16.30;99.90
52513;DHT22;38422;53.172;6.974;2023-08-06T06:05:33;16.40;99.90
52513;DHT22;38422;53.172;6.974;2023-08-06T06:07:59;16.40;99.90
52513;DHT22;38422;53.172;6.974;2023-08-06T06:10:25;16.50;99.90
52513;DHT22;38422;53.172;6.974;2023-08-06T06:12:50;16.50;99.90
52513;DHT22;38422;53.172;6.974;2023-08-06T06:15:16;16.60;99.90
52513;DHT22;38422;53.172;6.974;2023-08-06T06:17:42;16.60;99.90
52513;DHT22;38422;53.172;6.974;2023-08-06T06:20:08;16.60;99.90
52513;DHT22;38422;53.172;6.974;2023-08-06T06:22:33;16.70;99.90
52513;DHT22;38422;53.172;6.974;2023-08-06T06:24:59;16.70;99.90
52513;DHT22;38422;53.172;6.974;2023-08-06T06:27:25;16.70;99.90
52513;DHT22;38422;53.172;6.974;2023-08-06T06:29:50;16.80;99.90
52513;DHT22;38422;53.172;6.974;2023-08-06T06:32:17;16.80;99.90
52513;DHT22;38422;53.172;6.974;2023-08-06T06:34:43;16.80;99.90
52513;DHT22;38422;53.172;6.974;2023-08-06T06:37:09;16.90;99.90
52513;DHT22;38422;53.172;6.974;2023-08-06T06:39:34;16.90;99.90
52513;DHT22;38422;53.172;6.974;2023-08-06T06:42:00;17.00;99.90
52513;DHT22;38422;53.172;6.974;2023-08-06T06:44:26;17.10;99.90
52513;DHT22;38422;53.172;6.974;2023-08-06T06:46:51;17.20;99.90
52513;DHT22;38422;53.172;6.974;2023-08-06T06:49:17;17.20;99.90
52513;DHT22;38422;53.172;6.974;2023-08-06T06:51:43;17.20;99.90
52513;DHT22;38422;53.172;6.974;2023-08-06T06:54:09;17.20;99.90
52513;DHT22;38422;53.172;6.974;2023-08-06T06:56:34;17.30;99.90
52513;DHT22;38422;53.172;6.974;2023-08-06T06:59:00;17.20;99.90
52513;DHT22;38422;53.172;6.974;2023-08-06T07:01:26;17.20;99.90
52513;DHT22;38422;53.172;6.974;2023-08-06T07:03:51;17.20;99.90
52513;DHT22;38422;53.172;6.974;2023-08-06T07:06:17;17.30;99.90
52513;DHT22;38422;53.172;6.974;2023-08-06T07:08:44;17.30;99.90
52513;DHT22;38422;53.172;6.974;2023-08-06T07:11:10;17.30;99.90
52513;DHT22;38422;53.172;6.974;2023-08-06T07:13:36;17.40;99.90
52513;DHT22;38422;53.172;6.974;2023-08-06T07:16:02;17.50;99.90
52513;DHT22;38422;53.172;6.974;2023-08-06T07:18:28;17.50;99.90
52513;DHT22;38422;53.172;6.974;2023-08-06T07:20:54;17.60;99.90
52513;DHT22;38422;53.172;6.974;2023-08-06T07:23:21;17.60;99.90
52513;DHT22;38422;53.172;6.974;2023-08-06T07:25:48;17.70;99.90
52513;DHT22;38422;53.172;6.974;2023-08-06T07:28:14;17.80;99.90
52513;DHT22;38422;53.172;6.974;2023-08-06T07:30:41;17.90;99.90
52513;DHT22;38422;53.172;6.974;2023-08-06T07:33:07;18.00;99.90
52513;DHT22;38422;53.172;6.974;2023-08-06T07:35:34;18.00;99.90
52513;DHT22;38422;53.172;6.974;2023-08-06T07:37:59;18.00;99.90
52513;DHT22;38422;53.172;6.974;2023-08-06T07:40:25;18.00;99.90
52513;DHT22;38422;53.172;6.974;2023-08-06T07:42:51;18.10;99.90
52513;DHT22;38422;53.172;6.974;2023-08-06T07:45:17;18.20;99.90
52513;DHT22;38422;53.172;6.974;2023-08-06T07:47:42;18.20;99.90
52513;DHT22;38422;53.172;6.974;2023-08-06T07:50:09;18.30;99.90
52513;DHT22;38422;53.172;6.974;2023-08-06T07:52:35;18.30;99.90
52513;DHT22;38422;53.172;6.974;2023-08-06T07:55:01;18.40;99.90
52513;DHT22;38422;53.172;6.974;2023-08-06T07:57:33;18.50;99.90
52513;DHT22;38422;53.172;6.974;2023-08-06T08:00:00;18.60;99.90
52513;DHT22;38422;53.172;6.974;2023-08-06T08:02:26;18.70;99.90
52513;DHT22;38422;53.172;6.974;2023-08-06T08:04:52;18.70;99.90
52513;DHT22;38422;53.172;6.974;2023-08-06T08:07:18;18.80;99.90
52513;DHT22;38422;53.172;6.974;2023-08-06T08:09:44;18.90;99.90
52513;DHT22;38422;53.172;6.974;2023-08-06T08:12:10;18.90;99.90
52513;DHT22;38422;53.172;6.974;2023-08-06T08:14:35;19.00;99.90
52513;DHT22;38422;53.172;6.974;2023-08-06T08:17:05;19.00;99.90
52513;DHT22;38422;53.172;6.974;2023-08-06T08:19:32;19.10;99.90
52513;DHT22;38422;53.172;6.974;2023-08-06T08:21:58;19.20;99.90
52513;DHT22;38422;53.172;6.974;2023-08-06T08:24:24;19.30;99.90
52513;DHT22;38422;53.172;6.974;2023-08-06T08:26:53;19.40;99.90
52513;DHT22;38422;53.172;6.974;2023-08-06T08:29:22;19.40;99.90
52513;DHT22;38422;53.172;6.974;2023-08-06T08:31:48;19.50;99.90
52513;DHT22;38422;53.172;6.974;2023-08-06T08:34:18;19.50;99.90
52513;DHT22;38422;53.172;6.974;2023-08-06T08:36:44;19.60;99.90
52513;DHT22;38422;53.172;6.974;2023-08-06T08:39:13;19.60;99.90
52513;DHT22;38422;53.172;6.974;2023-08-06T08:41:39;19.60;99.90
52513;DHT22;38422;53.172;6.974;2023-08-06T08:44:08;19.70;99.90
52513;DHT22;38422;53.172;6.974;2023-08-06T08:46:38;19.80;99.90
52513;DHT22;38422;53.172;6.974;2023-08-06T08:49:05;20.00;99.90
52513;DHT22;38422;53.172;6.974;2023-08-06T08:51:33;20.10;99.90
52513;DHT22;38422;53.172;6.974;2023-08-06T08:54:03;20.20;99.90
52513;DHT22;38422;53.172;6.974;2023-08-06T08:56:29;20.30;99.90
52513;DHT22;38422;53.172;6.974;2023-08-06T08:58:54;20.40;99.90
52513;DHT22;38422;53.172;6.974;2023-08-06T09:01:22;20.50;99.90
52513;DHT22;38422;53.172;6.974;2023-08-06T09:03:47;20.50;99.90
52513;DHT22;38422;53.172;6.974;2023-08-06T09:06:14;20.60;99.90
52513;DHT22;38422;53.172;6.974;2023-08-06T09:11:31;20.70;99.90
52513;DHT22;38422;53.172;6.974;2023-08-06T09:14:06;20.70;99.90
52513;DHT22;38422;53.172;6.974;2023-08-06T09:16:37;20.80;99.90
52513;DHT22;38422;53.172;6.974;2023-08-06T09:19:13;20.90;99.90
52513;DHT22;38422;53.172;6.974;2023-08-06T09:21:41;20.90;99.90
52513;DHT22;38422;53.172;6.974;2023-08-06T09:24:11;21.00;99.90
52513;DHT22;38422;53.172;6.974;2023-08-06T09:26:41;21.10;99.90
52513;DHT22;38422;53.172;6.974;2023-08-06T09:29:08;21.20;99.90
52513;DHT22;38422;53.172;6.974;2023-08-06T09:31:44;21.30;99.90
52513;DHT22;38422;53.172;6.974;2023-08-06T09:34:15;21.50;99.90
52513;DHT22;38422;53.172;6.974;2023-08-06T09:36:48;21.60;99.90
52513;DHT22;38422;53.172;6.974;2023-08-06T09:39:17;21.80;99.90
52513;DHT22;38422;53.172;6.974;2023-08-06T09:41:43;21.90;99.90
52513;DHT22;38422;53.172;6.974;2023-08-06T09:44:19;22.10;99.90
52513;DHT22;38422;53.172;6.974;2023-08-06T09:46:52;22.30;99.90
52513;DHT22;38422;53.172;6.974;2023-08-06T09:51:58;22.80;99.90
52513;DHT22;38422;53.172;6.974;2023-08-06T09:54:26;23.10;99.90
52513;DHT22;38422;53.172;6.974;2023-08-06T09:56:56;23.30;99.90
52513;DHT22;38422;53.172;6.974;2023-08-06T09:59:23;23.60;99.90
52513;DHT22;38422;53.172;6.974;2023-08-06T10:01:49;23.90;99.90
52513;DHT22;38422;53.172;6.974;2023-08-06T10:04:15;24.10;99.90
52513;DHT22;38422;53.172;6.974;2023-08-06T10:06:46;24.20;99.90
52513;DHT22;38422;53.172;6.974;2023-08-06T10:09:13;24.20;99.90
52513;DHT22;38422;53.172;6.974;2023-08-06T10:11:39;24.00;99.90
52513;DHT22;38422;53.172;6.974;2023-08-06T10:14:18;24.10;99.90
52513;DHT22;38422;53.172;6.974;2023-08-06T10:16:46;24.30;99.90
52513;DHT22;38422;53.172;6.974;2023-08-06T10:19:13;24.50;99.90
52513;DHT22;38422;53.172;6.974;2023-08-06T10:21:41;24.80;99.90
52513;DHT22;38422;53.172;6.974;2023-08-06T10:24:07;24.90;99.90
52513;DHT22;38422;53.172;6.974;2023-08-06T10:26:36;25.00;99.90
52513;DHT22;38422;53.172;6.974;2023-08-06T10:29:37;25.10;99.90
52513;DHT22;38422;53.172;6.974;2023-08-06T10:32:03;25.30;99.90
52513;DHT22;38422;53.172;6.974;2023-08-06T10:34:58;25.50;99.90
52513;DHT22;38422;53.172;6.974;2023-08-06T10:37:37;25.60;99.80
52513;DHT22;38422;53.172;6.974;2023-08-06T10:40:06;25.70;99.60
52513;DHT22;38422;53.172;6.974;2023-08-06T10:42:33;25.90;99.90
52513;DHT22;38422;53.172;6.974;2023-08-06T10:45:15;26.10;99.90
52513;DHT22;38422;53.172;6.974;2023-08-06T10:47:42;26.40;99.30
52513;DHT22;38422;53.172;6.974;2023-08-06T10:50:12;26.50;99.40
52513;DHT22;38422;53.172;6.974;2023-08-06T10:52:38;26.60;99.20
52513;DHT22;38422;53.172;6.974;2023-08-06T10:55:04;26.80;98.90
52513;DHT22;38422;53.172;6.974;2023-08-06T10:57:30;27.00;98.60
52513;DHT22;38422;53.172;6.974;2023-08-06T10:59:56;27.00;98.70
52513;DHT22;38422;53.172;6.974;2023-08-06T11:02:21;27.10;97.90
52513;DHT22;38422;53.172;6.974;2023-08-06T11:04:48;27.30;97.70
52513;DHT22;38422;53.172;6.974;2023-08-06T11:07:14;27.40;97.50
52513;DHT22;38422;53.172;6.974;2023-08-06T11:09:39;27.50;97.00
52513;DHT22;38422;53.172;6.974;2023-08-06T11:12:11;27.60;96.90
52513;DHT22;38422;53.172;6.974;2023-08-06T11:14:37;27.70;95.90
52513;DHT22;38422;53.172;6.974;2023-08-06T11:17:05;27.90;96.30
52513;DHT22;38422;53.172;6.974;2023-08-06T11:19:31;28.00;95.80
52513;DHT22;38422;53.172;6.974;2023-08-06T11:21:56;27.80;95.40
52513;DHT22;38422;53.172;6.974;2023-08-06T11:24:24;27.70;95.40
52513;DHT22;38422;53.172;6.974;2023-08-06T11:26:50;27.50;94.60
52513;DHT22;38422;53.172;6.974;2023-08-06T11:29:16;27.10;94.80
52513;DHT22;38422;53.172;6.974;2023-08-06T11:31:41;26.70;94.70
52513;DHT22;38422;53.172;6.974;2023-08-06T11:34:07;26.30;94.80
52513;DHT22;38422;53.172;6.974;2023-08-06T11:36:34;26.00;95.00
52513;DHT22;38422;53.172;6.974;2023-08-06T11:39:03;25.70;95.10
52513;DHT22;38422;53.172;6.974;2023-08-06T11:41:34;25.60;95.80
52513;DHT22;38422;53.172;6.974;2023-08-06T11:44:03;25.80;96.30
52513;DHT22;38422;53.172;6.974;2023-08-06T11:46:29;25.90;96.50
52513;DHT22;38422;53.172;6.974;2023-08-06T11:49:14;26.00;96.70
52513;DHT22;38422;53.172;6.974;2023-08-06T11:51:40;26.00;96.60
52513;DHT22;38422;53.172;6.974;2023-08-06T11:54:06;26.10;96.80
52513;DHT22;38422;53.172;6.974;2023-08-06T11:56:32;26.40;96.90
52513;DHT22;38422;53.172;6.974;2023-08-06T11:58:58;26.60;96.40
52513;DHT22;38422;53.172;6.974;2023-08-06T12:01:25;26.70;96.30
52513;DHT22;38422;53.172;6.974;2023-08-06T12:03:51;27.00;96.50
52513;DHT22;38422;53.172;6.974;2023-08-06T12:06:16;27.20;95.80
52513;DHT22;38422;53.172;6.974;2023-08-06T12:08:42;27.60;95.80
52513;DHT22;38422;53.172;6.974;2023-08-06T12:11:08;27.80;95.60
52513;DHT22;38422;53.172;6.974;2023-08-06T12:13:34;28.00;95.50
52513;DHT22;38422;53.172;6.974;2023-08-06T12:16:00;28.00;95.10
52513;DHT22;38422;53.172;6.974;2023-08-06T12:18:25;28.00;94.90
52513;DHT22;38422;53.172;6.974;2023-08-06T12:20:51;28.00;95.00
52513;DHT22;38422;53.172;6.974;2023-08-06T12:23:17;28.20;95.10
52513;DHT22;38422;53.172;6.974;2023-08-06T12:25:43;28.40;95.00
52513;DHT22;38422;53.172;6.974;2023-08-06T12:28:10;28.50;95.40
52513;DHT22;38422;53.172;6.974;2023-08-06T12:30:36;28.60;94.30
52513;DHT22;38422;53.172;6.974;2023-08-06T12:33:01;28.60;95.00
52513;DHT22;38422;53.172;6.974;2023-08-06T12:35:27;28.60;95.30
52513;DHT22;38422;53.172;6.974;2023-08-06T12:37:53;28.60;94.80
52513;DHT22;38422;53.172;6.974;2023-08-06T12:40:20;28.80;94.70
52513;DHT22;38422;53.172;6.974;2023-08-06T12:42:46;28.90;94.80
52513;DHT22;38422;53.172;6.974;2023-08-06T12:45:12;28.90;94.40
52513;DHT22;38422;53.172;6.974;2023-08-06T12:47:37;29.00;94.40
52513;DHT22;38422;53.172;6.974;2023-08-06T12:50:03;28.90;93.90
52513;DHT22;38422;53.172;6.974;2023-08-06T12:52:29;28.50;93.60
52513;DHT22;38422;53.172;6.974;2023-08-06T12:54:55;28.20;93.80
52513;DHT22;38422;53.172;6.974;2023-08-06T12:57:21;27.80;94.10
52513;DHT22;38422;53.172;6.974;2023-08-06T12:59:46;27.40;94.10
52513;DHT22;38422;53.172;6.974;2023-08-06T13:02:13;27.40;94.30
52513;DHT22;38422;53.172;6.974;2023-08-06T13:04:39;27.20;94.20
52513;DHT22;38422;53.172;6.974;2023-08-06T13:07:05;27.10;94.50
52513;DHT22;38422;53.172;6.974;2023-08-06T13:09:32;27.20;94.60
52513;DHT22;38422;53.172;6.974;2023-08-06T13:11:58;27.50;94.60
52513;DHT22;38422;53.172;6.974;2023-08-06T13:14:25;27.90;94.40
52513;DHT22;38422;53.172;6.974;2023-08-06T13:16:51;27.80;94.20
52513;DHT22;38422;53.172;6.974;2023-08-06T13:19:17;27.80;94.70
52513;DHT22;38422;53.172;6.974;2023-08-06T13:24:11;28.10;94.10
52513;DHT22;38422;53.172;6.974;2023-08-06T13:26:38;28.40;94.20
52513;DHT22;38422;53.172;6.974;2023-08-06T13:29:04;28.60;93.90
52513;DHT22;38422;53.172;6.974;2023-08-06T13:31:30;28.80;93.50
52513;DHT22;38422;53.172;6.974;2023-08-06T13:33:56;29.00;93.20
52513;DHT22;38422;53.172;6.974;2023-08-06T13:36:24;29.20;93.30
52513;DHT22;38422;53.172;6.974;2023-08-06T13:38:50;29.50;93.20
52513;DHT22;38422;53.172;6.974;2023-08-06T13:41:16;29.60;92.60
52513;DHT22;38422;53.172;6.974;2023-08-06T13:43:42;29.70;92.20
52513;DHT22;38422;53.172;6.974;2023-08-06T13:46:10;29.80;92.30
52513;DHT22;38422;53.172;6.974;2023-08-06T13:48:40;29.90;91.90
52513;DHT22;38422;53.172;6.974;2023-08-06T13:51:06;30.00;91.60
52513;DHT22;38422;53.172;6.974;2023-08-06T13:53:31;30.00;91.30
52513;DHT22;38422;53.172;6.974;2023-08-06T13:55:57;30.00;91.20
52513;DHT22;38422;53.172;6.974;2023-08-06T13:58:24;30.00;90.90
52513;DHT22;38422;53.172;6.974;2023-08-06T14:00:51;29.90;90.60
52513;DHT22;38422;53.172;6.974;2023-08-06T14:03:18;30.00;90.40
52513;DHT22;38422;53.172;6.974;2023-08-06T14:05:44;29.90;89.50
52513;DHT22;38422;53.172;6.974;2023-08-06T14:08:10;30.00;89.90
52513;DHT22;38422;53.172;6.974;2023-08-06T14:10:36;30.00;89.70
52513;DHT22;38422;53.172;6.974;2023-08-06T14:13:01;30.00;90.10
52513;DHT22;38422;53.172;6.974;2023-08-06T14:15:27;29.90;89.00
52513;DHT22;38422;53.172;6.974;2023-08-06T14:17:53;29.90;88.70
52513;DHT22;38422;53.172;6.974;2023-08-06T14:20:18;29.90;88.40
52513;DHT22;38422;53.172;6.974;2023-08-06T14:22:44;29.90;87.70
52513;DHT22;38422;53.172;6.974;2023-08-06T14:25:10;30.00;86.50
52513;DHT22;38422;53.172;6.974;2023-08-06T14:27:35;30.00;86.00
52513;DHT22;38422;53.172;6.974;2023-08-06T14:30:01;30.10;85.20
52513;DHT22;38422;53.172;6.974;2023-08-06T14:32:29;30.00;84.20
52513;DHT22;38422;53.172;6.974;2023-08-06T14:34:55;30.00;84.20
52513;DHT22;38422;53.172;6.974;2023-08-06T14:37:21;29.90;83.60
52513;DHT22;38422;53.172;6.974;2023-08-06T14:39:46;30.00;84.40
52513;DHT22;38422;53.172;6.974;2023-08-06T14:42:12;30.00;83.60
52513;DHT22;38422;53.172;6.974;2023-08-06T14:44:38;30.00;83.30
52513;DHT22;38422;53.172;6.974;2023-08-06T14:47:04;30.00;83.20
52513;DHT22;38422;53.172;6.974;2023-08-06T14:49:30;30.00;83.00
52513;DHT22;38422;53.172;6.974;2023-08-06T14:51:56;30.10;83.20
52513;DHT22;38422;53.172;6.974;2023-08-06T14:54:24;30.10;83.20
52513;DHT22;38422;53.172;6.974;2023-08-06T14:56:50;30.20;82.80
52513;DHT22;38422;53.172;6.974;2023-08-06T14:59:16;30.10;83.30
52513;DHT22;38422;53.172;6.974;2023-08-06T15:01:41;30.10;83.50
52513;DHT22;38422;53.172;6.974;2023-08-06T15:04:07;30.00;83.90
52513;DHT22;38422;53.172;6.974;2023-08-06T15:06:33;30.00;84.30
52513;DHT22;38422;53.172;6.974;2023-08-06T15:08:59;29.70;83.60
52513;DHT22;38422;53.172;6.974;2023-08-06T15:11:26;29.50;83.20
52513;DHT22;38422;53.172;6.974;2023-08-06T15:13:52;29.40;82.70
52513;DHT22;38422;53.172;6.974;2023-08-06T15:16:18;29.20;83.00
52513;DHT22;38422;53.172;6.974;2023-08-06T15:18:43;29.10;82.50
52513;DHT22;38422;53.172;6.974;2023-08-06T15:21:10;29.10;83.00
52513;DHT22;38422;53.172;6.974;2023-08-06T15:23:36;29.10;83.00
52513;DHT22;38422;53.172;6.974;2023-08-06T15:26:02;29.20;82.90
52513;DHT22;38422;53.172;6.974;2023-08-06T15:28:28;29.30;82.30
52513;DHT22;38422;53.172;6.974;2023-08-06T15:30:54;29.40;82.20
52513;DHT22;38422;53.172;6.974;2023-08-06T15:33:20;29.30;81.90
52513;DHT22;38422;53.172;6.974;2023-08-06T15:35:47;29.40;81.90
52513;DHT22;38422;53.172;6.974;2023-08-06T15:38:13;29.40;82.30
52513;DHT22;38422;53.172;6.974;2023-08-06T15:40:38;29.40;81.70